Pagrindinis puslapis
METAR-TAF:

METAR-TAF

Oro uostai :

Terezina, Piauí, Brazilija

platuma: 05-03S, ilguma: 042-49W, Aukštis: 69 m

Dabartinis oras

Ataskaita buvo paskelbta 49 minutes, ne 09:00 UTC
Vėjas 4 kt iš Vakarų/Pietvakarių
Temperatūra 25°C
Drėgmė 89%
Slėgis 1011 hPa
Matomumas 10 km arba daugiau
Su prošvaistėmis ne aukštis 3000 ft

METAR: SBTE 090900Z 25004KT 9999 BKN030 25/23 Q1011

Laikas: 06:49 (09:49 UTC)

Prognozė

Ataskaita buvo paskelbta 5 valandos ir 49 minutes, ne 04:00 UTC
Prognozė galioja nuo 09 metu 06 UTC su 09 metu 18 UTC
Vėjas 8 kt iš Šiaurės
Matomumas 10 km arba daugiau
nėra debesų žemiau 1500 m ir nėra kamuolinių lietaus debesų
Tapsmas
nuo 09 metu 09 UTC su 09 metu 11 UTC
Vėjas 5 kt iš Šiaurės/Šiaurės Rytų
Matomumas 10 km arba daugiau
Išsisklaidę debesys ne aukštis 2000 ft
Tapsmas
nuo 09 metu 15 UTC su 09 metu 17 UTC
Vėjas 5 kt iš Šiaurės/Šiaurės Vakarų
Išsisklaidę debesys ne aukštis 4000 ft

TAF: SBTE 090400Z 0906/0918 36008KT CAVOK TN26/0906Z TX37/0918Z BECMG 0909/0911 03005KT 9999 SCT020 BECMG 0915/0917 33005KT SCT040 RMK PEH

Orai ataskaitas ir orų prognozės (METAR, TAF).

turimą stotys yra geltonos ir raudonos taškus žemėlapyje.

Perkelti pele per norėdami pamatyti stoties vardą.

Tada spustelėkite, norėdami matyti oro stebėjimo ir prognozės.

Norėdami pakeisti žemėlapį: spustelėkite ant žalios mygtukų su juodo kryžiaus žemyn,; žalią mygtuką su brūkšneliu, jei norite nutolinti; arba žalių rodyklių gretimoms žemėlapius.


METAR-TAF: